createdAt,value
2022-09-25T00:00:49.128Z,57.50
2022-09-25T00:03:17.206Z,58.20
2022-09-25T00:05:45.994Z,57.40
2022-09-25T00:08:14.144Z,57.60
2022-09-25T00:10:42.887Z,57.80
2022-09-25T00:13:10.734Z,57.60
2022-09-25T00:15:39.815Z,57.60
2022-09-25T00:18:07.471Z,57.40
2022-09-25T00:20:34.539Z,57.70
2022-09-25T00:23:02.237Z,57.60
2022-09-25T00:25:30.369Z,57.60
2022-09-25T00:27:58.044Z,57.60
2022-09-25T00:30:26.317Z,57.80
2022-09-25T00:32:55.701Z,57.60
2022-09-25T00:35:23.893Z,57.90
2022-09-25T00:37:51.720Z,57.70
2022-09-25T00:40:20.222Z,57.80
2022-09-25T00:42:48.088Z,57.60
2022-09-25T00:45:18.429Z,57.80
2022-09-25T00:47:49.428Z,57.80
2022-09-25T00:50:35.544Z,57.90
2022-09-25T00:53:06.124Z,57.70
2022-09-25T00:55:34.531Z,57.90
2022-09-25T00:58:02.381Z,57.70
2022-09-25T01:00:30.301Z,57.90
2022-09-25T01:02:58.748Z,57.90
2022-09-25T01:05:29.194Z,57.60
2022-09-25T01:07:59.019Z,57.90
2022-09-25T01:10:27.028Z,57.90
2022-09-25T01:12:54.969Z,58.00
2022-09-25T01:15:25.112Z,57.90
2022-09-25T01:17:59.148Z,58.00
2022-09-25T01:20:52.067Z,58.00
2022-09-25T01:23:31.206Z,57.80
2022-09-25T01:26:15.487Z,57.90
2022-09-25T01:28:52.219Z,58.00
2022-09-25T01:31:23.091Z,57.80
2022-09-25T01:33:53.877Z,58.00
2022-09-25T01:36:24.593Z,57.80
2022-09-25T01:38:53.185Z,58.10
2022-09-25T01:41:23.212Z,57.90
2022-09-25T01:43:53.929Z,58.10
2022-09-25T01:46:22.663Z,57.90
2022-09-25T01:48:52.422Z,58.10
2022-09-25T01:51:21.450Z,58.00
2022-09-25T01:53:51.969Z,58.20
2022-09-25T01:56:22.511Z,57.90
2022-09-25T01:58:53.498Z,58.00
2022-09-25T02:01:23.167Z,58.20
2022-09-25T02:03:52.513Z,58.30
2022-09-25T02:06:21.304Z,58.00
2022-09-25T02:08:50.304Z,58.20
2022-09-25T02:11:18.321Z,58.30
2022-09-25T02:13:49.153Z,58.00
2022-09-25T02:16:19.311Z,58.30
2022-09-25T02:19:04.944Z,58.20
2022-09-25T02:21:39.310Z,58.20
2022-09-25T02:24:10.978Z,58.20
2022-09-25T02:26:39.284Z,58.80
2022-09-25T02:29:08.663Z,58.20
2022-09-25T02:31:40.820Z,58.10
2022-09-25T02:34:14.450Z,58.20
2022-09-25T02:36:43.456Z,58.10
2022-09-25T02:39:11.291Z,58.30
2022-09-25T02:41:49.608Z,58.10
2022-09-25T02:44:19.417Z,58.20
2022-09-25T02:46:53.084Z,58.40
2022-09-25T02:49:24.614Z,59.30
2022-09-25T02:51:56.514Z,58.60
2022-09-25T02:54:25.794Z,58.50
2022-09-25T02:56:56.090Z,58.20
2022-09-25T02:59:29.303Z,58.60
2022-09-25T03:01:59.025Z,58.50
2022-09-25T03:04:27.032Z,58.30
2022-09-25T03:06:54.747Z,58.60
2022-09-25T03:09:22.239Z,58.40
2022-09-25T03:11:50.060Z,58.50
2022-09-25T03:14:17.806Z,58.70
2022-09-25T03:16:47.554Z,58.40
2022-09-25T03:19:18.619Z,58.60
2022-09-25T03:21:46.431Z,58.30
2022-09-25T03:24:14.615Z,58.30
2022-09-25T03:26:42.387Z,58.40
2022-09-25T03:29:10.126Z,58.50
2022-09-25T03:31:37.801Z,58.60
2022-09-25T03:34:05.767Z,58.70
2022-09-25T03:36:36.620Z,59.50
2022-09-25T03:39:04.456Z,58.50
2022-09-25T03:41:33.580Z,58.60
2022-09-25T03:44:01.352Z,58.40
2022-09-25T03:46:29.931Z,58.50
2022-09-25T03:48:57.860Z,58.70
2022-09-25T03:51:26.341Z,58.60
2022-09-25T03:53:55.406Z,58.70
2022-09-25T03:56:23.899Z,58.80
2022-09-25T03:58:52.191Z,58.90
2022-09-25T04:01:22.205Z,58.80
2022-09-25T04:03:50.521Z,58.80
2022-09-25T04:06:20.642Z,58.80
2022-09-25T04:08:48.752Z,58.80
2022-09-25T04:11:17.790Z,58.70
2022-09-25T04:13:45.494Z,58.90
2022-09-25T04:16:13.828Z,58.80
2022-09-25T04:18:42.670Z,58.80
2022-09-25T04:21:11.118Z,58.70
2022-09-25T04:23:38.966Z,59.00
2022-09-25T04:26:07.675Z,59.00
2022-09-25T04:28:36.732Z,58.90
2022-09-25T04:31:04.510Z,58.80
2022-09-25T04:33:47.776Z,59.10
2022-09-25T04:36:15.889Z,58.90
2022-09-25T04:38:44.119Z,58.90
2022-09-25T04:41:12.060Z,58.90
2022-09-25T04:43:41.412Z,59.00
2022-09-25T04:46:09.658Z,59.10
2022-09-25T04:48:38.012Z,59.10
2022-09-25T04:51:06.025Z,59.00
2022-09-25T04:53:35.327Z,59.00
2022-09-25T04:56:03.512Z,58.90
2022-09-25T04:58:31.639Z,59.00
2022-09-25T05:01:04.160Z,59.10
2022-09-25T05:03:32.340Z,59.10
2022-09-25T05:06:00.073Z,59.30
2022-09-25T05:08:28.348Z,59.20
2022-09-25T05:10:57.118Z,59.20
2022-09-25T05:13:24.850Z,59.10
2022-09-25T05:15:52.600Z,59.10
2022-09-25T05:18:22.600Z,59.10
2022-09-25T05:20:50.280Z,59.30
2022-09-25T05:23:18.260Z,59.10
2022-09-25T05:25:52.073Z,59.10
2022-09-25T05:28:19.742Z,59.30
2022-09-25T05:30:47.524Z,59.30
2022-09-25T05:33:15.216Z,59.30
2022-09-25T05:35:44.292Z,59.10
2022-09-25T05:38:12.392Z,59.40
2022-09-25T05:40:40.160Z,59.30
2022-09-25T05:43:07.907Z,59.30
2022-09-25T05:45:36.253Z,59.20
2022-09-25T05:48:04.735Z,59.30
2022-09-25T05:50:33.450Z,59.20
2022-09-25T05:53:03.402Z,59.20
2022-09-25T05:55:31.397Z,59.20
2022-09-25T05:58:03.048Z,59.20
2022-09-25T06:00:32.489Z,59.40
2022-09-25T06:03:00.731Z,59.30
2022-09-25T06:05:28.462Z,59.10
2022-09-25T06:07:56.267Z,59.40
2022-09-25T06:10:27.180Z,59.10
2022-09-25T06:12:59.102Z,59.30
2022-09-25T06:15:27.804Z,59.00
2022-09-25T06:17:56.274Z,59.40
2022-09-25T06:20:24.899Z,58.80
2022-09-25T06:22:54.797Z,58.90
2022-09-25T06:25:23.854Z,58.90
2022-09-25T06:27:55.397Z,58.80
2022-09-25T06:30:23.219Z,59.30
2022-09-25T06:32:51.086Z,59.10
2022-09-25T06:35:18.809Z,58.80
2022-09-25T06:37:46.488Z,58.90
2022-09-25T06:40:14.279Z,59.10
2022-09-25T06:42:42.399Z,59.20
2022-09-25T06:45:12.059Z,58.90
2022-09-25T06:47:39.741Z,59.20
2022-09-25T06:50:08.724Z,59.10
2022-09-25T06:52:43.185Z,59.00
2022-09-25T06:55:11.670Z,59.10
2022-09-25T06:57:39.358Z,59.00
2022-09-25T07:00:08.126Z,59.10
2022-09-25T07:02:54.860Z,59.20
2022-09-25T07:05:22.987Z,59.20
2022-09-25T07:07:50.701Z,59.40
2022-09-25T07:10:18.946Z,58.80
2022-09-25T07:12:47.909Z,59.00
2022-09-25T07:15:15.794Z,58.90
2022-09-25T07:17:45.255Z,58.90
2022-09-25T07:20:13.992Z,58.90
2022-09-25T07:22:41.727Z,58.80
2022-09-25T07:25:10.130Z,58.80
2022-09-25T07:27:37.831Z,58.90
2022-09-25T07:30:06.408Z,59.00
2022-09-25T07:32:34.964Z,58.60
2022-09-25T07:35:04.368Z,58.60
2022-09-25T07:37:32.323Z,58.70
2022-09-25T07:40:00.295Z,59.10
2022-09-25T07:42:28.174Z,58.90
2022-09-25T07:44:56.113Z,58.60
2022-09-25T07:47:24.359Z,58.50
2022-09-25T07:49:52.281Z,58.60
2022-09-25T07:52:21.891Z,58.50
2022-09-25T07:54:49.848Z,58.40
2022-09-25T07:57:20.881Z,58.90
2022-09-25T07:59:48.813Z,58.40
2022-09-25T08:02:16.794Z,58.60
2022-09-25T08:04:44.857Z,58.10
2022-09-25T08:07:12.721Z,58.30
2022-09-25T08:09:41.789Z,58.10
2022-09-25T08:12:12.982Z,58.90
2022-09-25T08:14:41.859Z,58.50
2022-09-25T08:17:09.722Z,58.30
2022-09-25T08:19:37.597Z,58.30
2022-09-25T08:22:05.498Z,58.70
2022-09-25T08:24:33.773Z,58.40
2022-09-25T08:27:03.184Z,58.40
2022-09-25T08:29:31.477Z,58.40
2022-09-25T08:31:59.326Z,58.70
2022-09-25T08:34:40.460Z,58.60
2022-09-25T08:37:09.819Z,58.30
2022-09-25T08:39:38.250Z,58.30
2022-09-25T08:42:07.590Z,58.50
2022-09-25T08:44:38.316Z,58.40
2022-09-25T08:47:25.439Z,58.40
2022-09-25T08:50:00.538Z,58.20
2022-09-25T08:52:28.209Z,58.10
2022-09-25T08:54:55.879Z,58.20
2022-09-25T08:57:30.762Z,58.00
2022-09-25T09:00:02.408Z,57.70
2022-09-25T09:02:39.368Z,57.70
2022-09-25T09:05:12.031Z,57.40
2022-09-25T09:07:41.748Z,57.10
2022-09-25T09:10:16.737Z,56.70
2022-09-25T09:12:47.123Z,56.40
2022-09-25T09:15:22.516Z,56.40
2022-09-25T09:17:50.831Z,56.10
2022-09-25T09:20:20.451Z,55.80
2022-09-25T09:22:50.809Z,55.30
2022-09-25T09:25:27.044Z,55.10
2022-09-25T09:28:06.076Z,54.60
2022-09-25T09:30:35.688Z,54.80
2022-09-25T09:33:15.148Z,54.40
2022-09-25T09:35:47.565Z,54.40
2022-09-25T09:38:21.867Z,54.20
2022-09-25T09:41:02.947Z,53.40
2022-09-25T09:43:40.078Z,52.90
2022-09-25T09:46:16.335Z,52.90
2022-09-25T09:48:47.212Z,52.80
2022-09-25T09:51:17.213Z,52.00
2022-09-25T09:53:48.159Z,51.90
2022-09-25T09:56:18.746Z,51.90
2022-09-25T09:58:50.731Z,52.40
2022-09-25T10:01:40.418Z,52.50
2022-09-25T10:04:10.106Z,52.80
2022-09-25T10:06:39.662Z,53.20
2022-09-25T10:09:08.920Z,52.80
2022-09-25T10:11:37.539Z,52.30
2022-09-25T10:14:07.350Z,52.40
2022-09-25T10:16:35.549Z,52.30
2022-09-25T10:19:06.840Z,52.40
2022-09-25T10:21:38.651Z,52.40
2022-09-25T10:24:07.601Z,52.60
2022-09-25T10:26:36.916Z,52.60
2022-09-25T10:29:24.207Z,52.70
2022-09-25T10:31:58.831Z,52.90
2022-09-25T10:34:29.169Z,52.80
2022-09-25T10:36:57.010Z,52.90
2022-09-25T10:39:44.298Z,53.00
2022-09-25T10:42:38.889Z,53.00
2022-09-25T10:45:31.951Z,52.90
2022-09-25T10:48:17.298Z,53.00
2022-09-25T10:50:45.711Z,53.10
2022-09-25T10:53:28.892Z,52.60
2022-09-25T10:56:02.264Z,52.90
2022-09-25T10:58:32.055Z,52.50
2022-09-25T11:01:02.545Z,53.10
2022-09-25T11:03:32.143Z,53.40
2022-09-25T11:06:02.305Z,53.20
2022-09-25T11:08:31.323Z,53.30
2022-09-25T11:11:00.538Z,53.30
2022-09-25T11:13:30.179Z,53.70
2022-09-25T11:15:59.654Z,54.00
2022-09-25T11:18:47.280Z,54.20
2022-09-25T11:21:23.294Z,54.60
2022-09-25T11:24:01.276Z,54.30
2022-09-25T11:26:32.197Z,54.60
2022-09-25T11:29:05.283Z,55.00
2022-09-25T11:31:37.687Z,54.80
2022-09-25T11:34:12.462Z,53.30
2022-09-25T11:36:42.700Z,53.10
2022-09-25T11:39:30.117Z,52.50
2022-09-25T11:42:00.599Z,52.20
2022-09-25T11:44:32.167Z,52.00
2022-09-25T11:47:02.907Z,51.20
2022-09-25T11:49:34.438Z,50.90
2022-09-25T11:52:23.092Z,51.20
2022-09-25T11:55:16.986Z,50.60
2022-09-25T11:57:50.521Z,50.40
2022-09-25T12:00:20.446Z,50.60
2022-09-25T12:03:01.329Z,50.30
2022-09-25T12:05:41.300Z,50.60
2022-09-25T12:08:19.412Z,50.40
2022-09-25T12:10:53.532Z,51.60
2022-09-25T12:13:26.774Z,50.90
2022-09-25T12:16:01.195Z,50.50
2022-09-25T12:18:40.654Z,50.10
2022-09-25T12:21:11.475Z,47.80
2022-09-25T12:23:44.077Z,47.80
2022-09-25T12:26:17.672Z,45.80
2022-09-25T12:28:59.499Z,46.20
2022-09-25T12:31:32.283Z,38.90
2022-09-25T12:34:06.237Z,35.20
2022-09-25T12:36:38.939Z,32.70
2022-09-25T12:39:18.312Z,34.00
2022-09-25T12:41:48.268Z,35.70
2022-09-25T12:44:22.372Z,37.50
2022-09-25T12:46:55.000Z,36.70
2022-09-25T12:49:28.765Z,39.20
2022-09-25T12:52:00.399Z,41.50
2022-09-25T12:54:32.627Z,43.20
2022-09-25T12:57:03.076Z,43.80
2022-09-25T12:59:33.828Z,44.60
2022-09-25T13:02:04.398Z,44.50
2022-09-25T13:04:53.678Z,44.80
2022-09-25T13:07:26.572Z,45.10
2022-09-25T13:09:54.266Z,43.80
2022-09-25T13:12:27.355Z,40.60
2022-09-25T13:14:57.153Z,37.20
2022-09-25T13:17:24.864Z,35.60
2022-09-25T13:19:52.624Z,34.10
2022-09-25T13:22:21.649Z,33.20
2022-09-25T13:24:53.376Z,32.70
2022-09-25T13:27:22.583Z,32.20
2022-09-25T13:29:56.828Z,31.70
2022-09-25T13:32:28.848Z,31.70
2022-09-25T13:34:59.074Z,32.20
2022-09-25T13:37:29.085Z,32.80
2022-09-25T13:40:15.724Z,34.00
2022-09-25T13:42:44.797Z,35.40
2022-09-25T13:45:29.223Z,36.40
2022-09-25T13:48:10.901Z,36.60
2022-09-25T13:50:40.444Z,36.90
2022-09-25T13:53:27.456Z,38.70
2022-09-25T13:56:36.449Z,40.30
2022-09-25T13:59:38.674Z,41.80
2022-09-25T14:02:37.825Z,41.20
2022-09-25T14:05:06.584Z,40.50
2022-09-25T14:07:34.846Z,38.90
2022-09-25T14:10:02.638Z,37.80
2022-09-25T14:12:42.233Z,39.40
2022-09-25T14:15:15.618Z,41.20
2022-09-25T14:17:44.338Z,39.70
2022-09-25T14:20:35.093Z,40.80
2022-09-25T14:23:06.132Z,42.10
2022-09-25T14:25:36.175Z,43.20
2022-09-25T14:28:14.772Z,41.80
2022-09-25T14:30:42.710Z,42.90
2022-09-25T14:33:37.272Z,44.00
2022-09-25T14:36:08.706Z,44.70
2022-09-25T14:38:59.639Z,45.50
2022-09-25T14:42:01.848Z,45.70
2022-09-25T14:44:41.533Z,46.40
2022-09-25T14:47:09.608Z,46.90
2022-09-25T14:49:39.372Z,47.40
2022-09-25T14:52:09.244Z,47.70
2022-09-25T14:54:39.719Z,47.90
2022-09-25T14:57:07.591Z,48.10
2022-09-25T14:59:40.455Z,48.40
2022-09-25T15:02:13.208Z,48.40
2022-09-25T15:04:41.636Z,48.20
2022-09-25T15:07:24.352Z,48.60
2022-09-25T15:09:55.924Z,48.10
2022-09-25T15:12:26.727Z,47.60
2022-09-25T15:15:03.643Z,47.70
2022-09-25T15:17:31.206Z,47.80
2022-09-25T15:20:02.617Z,48.00
2022-09-25T15:22:32.688Z,48.00
2022-09-25T15:25:01.741Z,48.20
2022-09-25T15:27:30.163Z,48.10
2022-09-25T15:30:00.149Z,48.40
2022-09-25T15:32:33.384Z,48.50
2022-09-25T15:35:09.581Z,48.60
2022-09-25T15:37:38.676Z,48.40
2022-09-25T15:40:18.474Z,48.50
2022-09-25T15:42:47.570Z,48.60
2022-09-25T15:45:35.569Z,48.80
2022-09-25T15:48:10.391Z,48.80
2022-09-25T15:50:38.389Z,49.00
2022-09-25T15:53:06.343Z,49.30
2022-09-25T15:55:34.298Z,49.30
2022-09-25T15:58:07.428Z,49.60
2022-09-25T16:00:52.701Z,49.70
2022-09-25T16:03:40.789Z,49.70
2022-09-25T16:06:13.193Z,49.60
2022-09-25T16:08:41.110Z,49.40
2022-09-25T16:11:20.890Z,49.70
2022-09-25T16:13:51.937Z,49.60
2022-09-25T16:16:24.865Z,49.50
2022-09-25T16:18:56.276Z,50.50
2022-09-25T16:21:26.850Z,50.50
2022-09-25T16:23:56.779Z,50.50
2022-09-25T16:26:26.014Z,50.50
2022-09-25T16:29:01.727Z,50.60
2022-09-25T16:31:29.527Z,50.60
2022-09-25T16:34:00.432Z,50.60
2022-09-25T16:36:28.930Z,50.60
2022-09-25T16:39:31.581Z,50.80
2022-09-25T16:42:00.277Z,50.50
2022-09-25T16:44:46.836Z,50.70
2022-09-25T16:47:17.769Z,50.70
2022-09-25T16:49:47.198Z,50.70
2022-09-25T16:52:20.239Z,50.90
2022-09-25T16:54:53.759Z,50.80
2022-09-25T16:57:22.589Z,51.00
2022-09-25T16:59:50.603Z,51.00
2022-09-25T17:02:32.770Z,51.10
2022-09-25T17:05:03.447Z,51.10
2022-09-25T17:07:31.308Z,51.20
2022-09-25T17:10:01.518Z,51.40
2022-09-25T17:12:30.154Z,51.30
2022-09-25T17:14:58.071Z,51.30
2022-09-25T17:17:26.052Z,51.30
2022-09-25T17:19:54.022Z,51.40
2022-09-25T17:22:29.358Z,51.50
2022-09-25T17:24:58.310Z,51.60
2022-09-25T17:27:26.178Z,51.60
2022-09-25T17:29:53.850Z,51.70
2022-09-25T17:32:21.541Z,51.70
2022-09-25T17:34:50.181Z,51.90
2022-09-25T17:37:17.957Z,51.90
2022-09-25T17:39:47.448Z,51.90
2022-09-25T17:42:15.678Z,52.00
2022-09-25T17:44:43.771Z,51.90
2022-09-25T17:47:12.893Z,52.10
2022-09-25T17:49:41.019Z,52.10
2022-09-25T17:52:09.896Z,52.10
2022-09-25T17:54:37.672Z,51.90
2022-09-25T17:57:07.029Z,51.80
2022-09-25T17:59:34.794Z,51.80
2022-09-25T18:02:02.679Z,51.80
2022-09-25T18:04:30.616Z,51.70
2022-09-25T18:06:59.813Z,51.50
2022-09-25T18:09:27.856Z,51.50
2022-09-25T18:11:55.819Z,51.50
2022-09-25T18:14:26.310Z,51.30
2022-09-25T18:16:54.170Z,51.30
2022-09-25T18:19:39.432Z,51.50
2022-09-25T18:22:21.370Z,51.30
2022-09-25T18:24:52.605Z,51.20
2022-09-25T18:27:20.329Z,51.40
2022-09-25T18:29:49.440Z,51.20
2022-09-25T18:32:17.336Z,51.30
2022-09-25T18:34:45.814Z,51.00
2022-09-25T18:37:13.762Z,51.10
2022-09-25T18:39:41.626Z,51.00
2022-09-25T18:42:09.571Z,51.20
2022-09-25T18:44:42.612Z,50.90
2022-09-25T18:47:12.449Z,50.90
2022-09-25T18:49:40.261Z,50.80
2022-09-25T18:52:08.288Z,50.70
2022-09-25T18:54:35.970Z,50.70
2022-09-25T18:57:03.716Z,50.70
2022-09-25T18:59:31.456Z,50.70
2022-09-25T19:02:00.039Z,50.70
2022-09-25T19:04:29.571Z,50.70
2022-09-25T19:06:57.359Z,50.60
2022-09-25T19:09:27.308Z,50.50
2022-09-25T19:11:55.125Z,50.60
2022-09-25T19:14:23.988Z,50.50
2022-09-25T19:16:53.368Z,50.60
2022-09-25T19:19:21.224Z,50.60
2022-09-25T19:21:50.401Z,50.40
2022-09-25T19:24:18.687Z,50.30
2022-09-25T19:26:48.004Z,50.90
2022-09-25T19:29:15.914Z,50.20
2022-09-25T19:31:44.277Z,50.90
2022-09-25T19:34:12.612Z,50.30
2022-09-25T19:36:40.395Z,50.30
2022-09-25T19:39:09.495Z,50.20
2022-09-25T19:41:39.115Z,50.30
2022-09-25T19:44:13.244Z,50.30
2022-09-25T19:46:42.297Z,50.10
2022-09-25T19:49:10.269Z,50.10
2022-09-25T19:51:38.615Z,49.90
2022-09-25T19:54:07.839Z,49.90
2022-09-25T19:56:40.591Z,50.00
2022-09-25T19:59:09.021Z,50.00
2022-09-25T20:01:38.302Z,49.90
2022-09-25T20:04:08.546Z,50.50
2022-09-25T20:06:37.733Z,50.10
2022-09-25T20:09:06.025Z,50.00
2022-09-25T20:11:34.610Z,49.70
2022-09-25T20:14:04.644Z,49.80
2022-09-25T20:16:32.739Z,49.80
2022-09-25T20:19:02.770Z,49.80
2022-09-25T20:21:32.656Z,49.80
2022-09-25T20:24:02.093Z,49.70
2022-09-25T20:26:30.146Z,49.80
2022-09-25T20:28:58.925Z,49.70
2022-09-25T20:31:29.728Z,49.70
2022-09-25T20:33:57.752Z,49.80
2022-09-25T20:36:25.710Z,49.70
2022-09-25T20:38:54.029Z,49.80
2022-09-25T20:41:22.309Z,49.60
2022-09-25T20:43:50.299Z,49.50
2022-09-25T20:46:20.693Z,49.60
2022-09-25T20:48:50.984Z,49.80
2022-09-25T20:51:19.756Z,49.70
2022-09-25T20:53:50.861Z,49.60
2022-09-25T20:56:18.598Z,49.60
2022-09-25T20:58:52.143Z,49.60
2022-09-25T21:01:22.751Z,49.50
2022-09-25T21:03:52.346Z,49.50
2022-09-25T21:06:21.116Z,49.40
2022-09-25T21:08:52.448Z,49.40
2022-09-25T21:11:20.395Z,49.40
2022-09-25T21:13:50.487Z,49.40
2022-09-25T21:16:18.663Z,49.60
2022-09-25T21:18:46.692Z,49.40
2022-09-25T21:21:16.080Z,49.40
2022-09-25T21:23:44.100Z,49.30
2022-09-25T21:26:13.663Z,49.30
2022-09-25T21:28:42.679Z,49.10
2022-09-25T21:31:11.840Z,49.10
2022-09-25T21:33:40.068Z,49.10
2022-09-25T21:36:10.214Z,49.10
2022-09-25T21:38:39.750Z,49.10
2022-09-25T21:41:08.312Z,49.00
2022-09-25T21:43:36.749Z,49.40
2022-09-25T21:46:06.036Z,48.70
2022-09-25T21:48:34.848Z,48.80
2022-09-25T21:51:02.935Z,48.80
2022-09-25T21:53:30.704Z,48.90
2022-09-25T21:56:03.921Z,48.70
2022-09-25T21:58:31.829Z,48.70
2022-09-25T22:01:04.370Z,49.00
2022-09-25T22:03:33.441Z,48.90
2022-09-25T22:06:01.240Z,49.40
2022-09-25T22:08:28.964Z,48.60
2022-09-25T22:10:57.151Z,48.80
2022-09-25T22:13:26.623Z,48.70
2022-09-25T22:16:01.264Z,48.50
2022-09-25T22:18:29.140Z,48.70
2022-09-25T22:20:56.939Z,48.70
2022-09-25T22:23:24.891Z,48.50
2022-09-25T22:25:53.169Z,48.50
2022-09-25T22:28:21.099Z,48.60
2022-09-25T22:30:50.329Z,48.60
2022-09-25T22:33:18.148Z,48.40
2022-09-25T22:35:46.423Z,48.60
2022-09-25T22:38:14.186Z,48.30
2022-09-25T22:40:42.797Z,48.30
2022-09-25T22:43:10.903Z,48.40
2022-09-25T22:45:38.884Z,48.40
2022-09-25T22:48:08.695Z,48.30
2022-09-25T22:50:36.756Z,48.30
2022-09-25T22:53:05.006Z,48.20
2022-09-25T22:55:33.824Z,48.40
2022-09-25T22:58:01.696Z,48.40
2022-09-25T23:00:29.545Z,48.20
2022-09-25T23:02:57.502Z,48.40
2022-09-25T23:05:27.254Z,48.10
2022-09-25T23:07:55.418Z,48.80
2022-09-25T23:10:23.280Z,48.20
2022-09-25T23:12:51.047Z,48.30
2022-09-25T23:15:18.899Z,48.50
2022-09-25T23:17:46.758Z,48.60
2022-09-25T23:20:14.498Z,48.70
2022-09-25T23:22:43.984Z,49.00
2022-09-25T23:25:11.774Z,48.70
2022-09-25T23:27:39.537Z,48.90
2022-09-25T23:30:08.288Z,49.20
2022-09-25T23:32:36.732Z,49.20
2022-09-25T23:35:04.494Z,49.40
2022-09-25T23:37:32.359Z,49.20
2022-09-25T23:40:01.992Z,49.40
2022-09-25T23:42:30.149Z,49.30
2022-09-25T23:44:58.563Z,49.40
2022-09-25T23:47:26.693Z,49.60
2022-09-25T23:49:54.478Z,49.80
2022-09-25T23:52:22.388Z,49.50
2022-09-25T23:54:50.208Z,49.80
2022-09-25T23:57:19.498Z,49.80
2022-09-25T23:59:47.325Z,50.00
